createdAt,value
2018-10-17T00:00:31.806Z,99.90
2018-10-17T00:03:01.352Z,99.90
2018-10-17T00:05:30.931Z,99.90
2018-10-17T00:08:00.550Z,99.90
2018-10-17T00:10:30.085Z,99.90
2018-10-17T00:12:59.642Z,99.90
2018-10-17T00:15:29.234Z,99.90
2018-10-17T00:17:58.758Z,99.90
2018-10-17T00:20:28.310Z,99.90
2018-10-17T00:22:57.896Z,99.90
2018-10-17T00:25:27.405Z,99.90
2018-10-17T00:27:56.997Z,99.90
2018-10-17T00:30:26.507Z,99.90
2018-10-17T00:32:56.189Z,99.90
2018-10-17T00:35:25.713Z,99.90
2018-10-17T00:37:55.257Z,99.90
2018-10-17T00:40:25.529Z,99.90
2018-10-17T00:42:55.704Z,99.90
2018-10-17T00:45:25.246Z,99.90
2018-10-17T00:47:54.921Z,99.90
2018-10-17T00:50:24.477Z,99.90
2018-10-17T00:52:54.049Z,99.90
2018-10-17T00:55:23.598Z,99.90
2018-10-17T00:57:53.161Z,99.90
2018-10-17T01:00:22.730Z,99.90
2018-10-17T01:02:52.531Z,99.90
2018-10-17T01:05:22.087Z,99.90
2018-10-17T01:07:51.638Z,99.90
2018-10-17T01:10:21.199Z,99.90
2018-10-17T01:12:50.765Z,99.90
2018-10-17T01:15:20.288Z,99.90
2018-10-17T01:17:49.798Z,99.90
2018-10-17T01:20:19.388Z,99.90
2018-10-17T01:22:48.965Z,99.90
2018-10-17T01:25:18.524Z,99.90
2018-10-17T01:27:48.109Z,99.90
2018-10-17T01:30:17.699Z,99.90
2018-10-17T01:32:47.325Z,99.90
2018-10-17T01:35:16.829Z,99.90
2018-10-17T01:37:46.408Z,99.90
2018-10-17T01:40:15.934Z,99.90
2018-10-17T01:42:45.539Z,99.90
2018-10-17T01:45:15.195Z,99.90
2018-10-17T01:47:44.731Z,99.90
2018-10-17T01:50:14.487Z,99.90
2018-10-17T01:52:44.081Z,99.90
2018-10-17T01:55:14.039Z,99.90
2018-10-17T01:57:43.596Z,99.90
2018-10-17T02:00:13.141Z,99.90
2018-10-17T02:02:42.717Z,99.90
2018-10-17T02:05:12.346Z,99.90
2018-10-17T02:07:41.875Z,99.90
2018-10-17T02:10:11.381Z,99.90
2018-10-17T02:12:40.935Z,99.90
2018-10-17T02:15:10.465Z,99.90
2018-10-17T02:17:40.033Z,99.90
2018-10-17T02:20:09.639Z,99.90
2018-10-17T02:22:39.178Z,99.90
2018-10-17T02:25:08.766Z,99.90
2018-10-17T02:27:38.628Z,99.90
2018-10-17T02:30:08.269Z,99.90
2018-10-17T02:32:37.783Z,99.90
2018-10-17T02:35:12.611Z,99.90
2018-10-17T02:37:42.284Z,99.90
2018-10-17T02:40:12.172Z,99.90
2018-10-17T02:42:41.934Z,99.90
2018-10-17T02:45:13.265Z,99.90
2018-10-17T02:47:42.875Z,99.90
2018-10-17T02:50:12.959Z,99.90
2018-10-17T02:52:43.190Z,99.90
2018-10-17T02:55:12.831Z,99.90
2018-10-17T02:57:42.403Z,99.90
2018-10-17T03:00:12.048Z,99.90
2018-10-17T03:02:41.627Z,99.90
2018-10-17T03:05:11.225Z,99.90
2018-10-17T03:07:40.756Z,99.90
2018-10-17T03:10:10.335Z,99.90
2018-10-17T03:12:39.923Z,99.90
2018-10-17T03:15:09.986Z,99.90
2018-10-17T03:17:39.554Z,99.90
2018-10-17T03:20:10.304Z,99.90
2018-10-17T03:22:39.879Z,99.90
2018-10-17T03:25:10.227Z,99.90
2018-10-17T03:27:39.791Z,99.90
2018-10-17T03:30:09.346Z,99.90
2018-10-17T03:32:38.913Z,99.90
2018-10-17T03:35:08.659Z,99.90
2018-10-17T03:37:38.171Z,99.90
2018-10-17T03:40:07.804Z,99.90
2018-10-17T03:42:37.454Z,99.90
2018-10-17T03:45:07.388Z,99.90
2018-10-17T03:47:36.915Z,99.90
2018-10-17T03:50:06.649Z,99.90
2018-10-17T03:52:36.196Z,99.90
2018-10-17T03:55:06.081Z,99.90
2018-10-17T03:57:35.590Z,99.90
2018-10-17T04:00:05.495Z,99.90
2018-10-17T04:02:35.048Z,99.90
2018-10-17T04:05:04.773Z,99.90
2018-10-17T04:07:34.272Z,99.90
2018-10-17T04:10:03.871Z,99.90
2018-10-17T04:12:33.373Z,99.90
2018-10-17T04:15:02.884Z,99.90
2018-10-17T04:17:32.410Z,99.90
2018-10-17T04:20:02.013Z,99.90
2018-10-17T04:22:31.610Z,99.90
2018-10-17T04:25:01.190Z,99.90
2018-10-17T04:27:30.694Z,99.90
2018-10-17T04:30:00.277Z,99.90
2018-10-17T04:32:29.798Z,99.90
2018-10-17T04:34:59.349Z,99.90
2018-10-17T04:37:28.888Z,99.90
2018-10-17T04:39:58.413Z,99.90
2018-10-17T04:42:27.999Z,99.90
2018-10-17T04:44:57.507Z,99.90
2018-10-17T04:47:27.030Z,99.90
2018-10-17T04:49:56.546Z,99.90
2018-10-17T04:52:26.118Z,99.90
2018-10-17T04:54:55.689Z,99.90
2018-10-17T04:57:25.373Z,99.90
2018-10-17T04:59:54.940Z,99.90
2018-10-17T05:02:24.488Z,99.90
2018-10-17T05:04:54.076Z,99.90
2018-10-17T05:07:23.688Z,99.90
2018-10-17T05:09:53.168Z,99.90
2018-10-17T05:12:22.687Z,99.90
2018-10-17T05:14:52.299Z,99.90
2018-10-17T05:17:21.807Z,99.90
2018-10-17T05:19:51.347Z,99.90
2018-10-17T05:22:20.939Z,99.90
2018-10-17T05:24:50.556Z,99.90
2018-10-17T05:27:20.050Z,99.90
2018-10-17T05:29:49.697Z,99.90
2018-10-17T05:32:19.171Z,99.90
2018-10-17T05:34:48.669Z,99.90
2018-10-17T05:37:18.345Z,99.90
2018-10-17T05:39:47.786Z,99.90
2018-10-17T05:42:17.363Z,99.90
2018-10-17T05:44:46.868Z,99.90
2018-10-17T05:47:16.500Z,99.90
2018-10-17T05:49:46.004Z,99.90
2018-10-17T05:52:15.582Z,99.90
2018-10-17T05:54:45.148Z,99.90
2018-10-17T05:57:14.676Z,99.90
2018-10-17T05:59:44.192Z,99.90
2018-10-17T06:02:22.766Z,99.90
2018-10-17T06:04:52.381Z,99.90
2018-10-17T06:07:22.215Z,99.90
2018-10-17T06:09:51.794Z,99.90
2018-10-17T06:12:21.470Z,99.90
2018-10-17T06:14:51.129Z,99.90
2018-10-17T06:17:21.158Z,99.90
2018-10-17T06:19:50.782Z,99.90
2018-10-17T06:22:20.378Z,99.90
2018-10-17T06:24:50.050Z,99.90
2018-10-17T06:27:19.750Z,99.90
2018-10-17T06:29:49.384Z,99.90
2018-10-17T06:32:18.974Z,99.90
2018-10-17T06:34:48.604Z,99.90
2018-10-17T06:37:18.351Z,99.90
2018-10-17T06:39:47.878Z,99.90
2018-10-17T06:42:17.436Z,99.90
2018-10-17T06:44:47.056Z,99.90
2018-10-17T06:47:16.800Z,99.90
2018-10-17T06:49:46.238Z,99.90
2018-10-17T06:52:15.903Z,99.90
2018-10-17T06:54:45.525Z,99.90
2018-10-17T06:57:15.093Z,99.90
2018-10-17T06:59:45.158Z,99.90
2018-10-17T07:02:14.790Z,99.90
2018-10-17T07:04:44.373Z,99.90
2018-10-17T07:07:14.041Z,99.90
2018-10-17T07:09:43.718Z,99.90
2018-10-17T07:12:13.345Z,99.90
2018-10-17T07:14:43.063Z,99.90
2018-10-17T07:17:12.852Z,99.90
2018-10-17T07:19:42.495Z,99.90
2018-10-17T07:22:12.126Z,99.90
2018-10-17T07:24:41.694Z,99.90
2018-10-17T07:27:11.242Z,99.90
2018-10-17T07:29:40.952Z,99.90
2018-10-17T07:32:10.471Z,99.90
2018-10-17T07:34:40.120Z,99.90
2018-10-17T07:37:09.745Z,99.90
2018-10-17T07:39:39.426Z,99.90
2018-10-17T07:42:08.961Z,99.90
2018-10-17T07:44:38.567Z,99.90
2018-10-17T07:47:08.236Z,99.90
2018-10-17T07:49:37.940Z,99.90
2018-10-17T07:52:07.569Z,99.90
2018-10-17T07:54:37.179Z,99.90
2018-10-17T07:57:06.847Z,99.90
2018-10-17T07:59:36.421Z,99.90
2018-10-17T08:02:06.157Z,99.90
2018-10-17T08:04:35.712Z,99.90
2018-10-17T08:07:05.769Z,99.90
2018-10-17T08:09:35.377Z,99.90
2018-10-17T08:12:05.029Z,99.90
2018-10-17T08:14:34.530Z,99.90
2018-10-17T08:17:04.160Z,99.90
2018-10-17T08:19:33.732Z,99.90
2018-10-17T08:22:03.275Z,99.90
2018-10-17T08:24:32.804Z,99.90
2018-10-17T08:27:02.328Z,99.90
2018-10-17T08:29:31.850Z,99.90
2018-10-17T08:32:01.404Z,99.90
2018-10-17T08:34:31.193Z,99.90
2018-10-17T08:37:00.911Z,99.90
2018-10-17T08:39:30.618Z,99.90
2018-10-17T08:42:00.238Z,99.90
2018-10-17T08:44:29.847Z,99.90
2018-10-17T08:46:59.397Z,99.90
2018-10-17T08:49:28.999Z,99.90
2018-10-17T08:51:58.660Z,99.90
2018-10-17T08:54:28.308Z,99.90
2018-10-17T08:56:57.902Z,99.90
2018-10-17T08:59:27.386Z,99.90
2018-10-17T09:01:56.937Z,99.90
2018-10-17T09:04:26.423Z,99.90
2018-10-17T09:06:55.970Z,99.90
2018-10-17T09:09:25.550Z,99.90
2018-10-17T09:11:55.102Z,99.90
2018-10-17T09:14:24.711Z,99.90
2018-10-17T09:16:54.292Z,99.90
2018-10-17T09:19:23.915Z,99.90
2018-10-17T09:21:53.683Z,99.90
2018-10-17T09:24:22.983Z,99.90
2018-10-17T09:26:52.593Z,99.90
2018-10-17T09:29:22.118Z,99.90
2018-10-17T09:31:51.634Z,99.90
2018-10-17T09:34:21.292Z,99.90
2018-10-17T09:36:50.757Z,99.90
2018-10-17T09:39:20.338Z,99.90
2018-10-17T09:41:50.218Z,99.90
2018-10-17T09:44:19.768Z,99.90
2018-10-17T09:46:49.342Z,99.90
2018-10-17T09:49:18.876Z,99.90
2018-10-17T09:51:48.483Z,99.90
2018-10-17T09:54:18.100Z,99.90
2018-10-17T09:56:47.671Z,99.90
2018-10-17T09:59:17.227Z,99.90
2018-10-17T10:01:46.784Z,99.90
2018-10-17T10:04:16.374Z,99.90
2018-10-17T10:06:45.887Z,99.90
2018-10-17T10:09:15.510Z,99.90
2018-10-17T10:11:45.030Z,99.90
2018-10-17T10:14:14.836Z,99.90
2018-10-17T10:16:44.629Z,99.90
2018-10-17T10:19:14.153Z,99.90
2018-10-17T10:21:43.742Z,99.90
2018-10-17T10:24:13.290Z,99.90
2018-10-17T10:26:42.862Z,99.90
2018-10-17T10:29:12.335Z,99.90
2018-10-17T10:31:42.111Z,99.90
2018-10-17T10:34:11.749Z,99.90
2018-10-17T10:36:41.214Z,99.90
2018-10-17T10:39:11.817Z,99.90
2018-10-17T10:41:41.733Z,99.90
2018-10-17T10:44:11.338Z,99.90
2018-10-17T10:46:40.842Z,99.90
2018-10-17T10:49:10.403Z,99.90
2018-10-17T10:51:40.034Z,99.90
2018-10-17T10:54:09.585Z,99.90
2018-10-17T10:56:39.165Z,99.90
2018-10-17T10:59:08.733Z,99.90
2018-10-17T11:01:38.226Z,99.90
2018-10-17T11:04:07.875Z,99.90
2018-10-17T11:06:37.393Z,99.90
2018-10-17T11:09:08.209Z,99.90
2018-10-17T11:11:38.158Z,99.90
2018-10-17T11:14:08.205Z,99.90
2018-10-17T11:16:37.698Z,99.90
2018-10-17T11:19:07.250Z,99.90
2018-10-17T11:21:36.821Z,99.90
2018-10-17T11:24:06.526Z,99.90
2018-10-17T11:26:36.081Z,99.90
2018-10-17T11:29:05.747Z,99.90
2018-10-17T11:31:35.316Z,99.90
2018-10-17T11:34:04.924Z,99.90
2018-10-17T11:36:34.490Z,99.90
2018-10-17T11:39:04.919Z,99.90
2018-10-17T11:41:35.398Z,99.90
2018-10-17T11:44:05.465Z,99.90
2018-10-17T11:46:35.097Z,99.90
2018-10-17T11:49:05.339Z,99.90
2018-10-17T11:51:34.797Z,99.90
2018-10-17T11:54:04.398Z,99.90
2018-10-17T11:56:33.949Z,99.90
2018-10-17T11:59:03.582Z,99.90
2018-10-17T12:01:33.200Z,99.90
2018-10-17T12:04:03.062Z,99.90
2018-10-17T12:06:32.795Z,99.90
2018-10-17T12:09:02.419Z,99.90
2018-10-17T12:11:32.000Z,99.90
2018-10-17T12:14:01.764Z,99.90
2018-10-17T12:16:31.344Z,99.90
2018-10-17T12:19:01.007Z,99.90
2018-10-17T12:21:30.626Z,99.90
2018-10-17T12:24:00.964Z,99.90
2018-10-17T12:26:30.509Z,99.90
2018-10-17T12:29:00.068Z,99.90
2018-10-17T12:31:29.648Z,99.90
2018-10-17T12:33:59.212Z,99.90
2018-10-17T12:36:28.791Z,99.90
2018-10-17T12:38:58.385Z,99.90
2018-10-17T12:41:28.352Z,99.90
2018-10-17T12:43:58.105Z,99.90
2018-10-17T12:46:27.744Z,99.60
2018-10-17T12:48:57.251Z,99.90
2018-10-17T12:51:26.802Z,99.70
2018-10-17T12:53:56.337Z,99.20
2018-10-17T12:56:25.931Z,99.90
2018-10-17T12:58:55.599Z,99.90
2018-10-17T13:01:25.173Z,99.90
2018-10-17T13:03:54.696Z,99.90
2018-10-17T13:06:24.295Z,99.90
2018-10-17T13:08:53.938Z,99.90
2018-10-17T13:11:23.545Z,99.90
2018-10-17T13:13:53.121Z,99.90
2018-10-17T13:16:22.753Z,99.80
2018-10-17T13:18:52.622Z,99.60
2018-10-17T13:21:22.673Z,99.20
2018-10-17T13:23:52.181Z,99.20
2018-10-17T13:26:21.780Z,99.50
2018-10-17T13:28:51.341Z,99.30
2018-10-17T13:31:21.281Z,99.90
2018-10-17T13:33:50.863Z,98.60
2018-10-17T13:36:20.389Z,98.60
2018-10-17T13:38:49.950Z,99.40
2018-10-17T13:41:19.497Z,99.90
2018-10-17T13:43:49.054Z,99.50
2018-10-17T13:46:18.609Z,99.10
2018-10-17T13:48:48.166Z,99.00
2018-10-17T13:51:17.824Z,99.10
2018-10-17T13:53:47.895Z,98.40
2018-10-17T13:56:17.440Z,97.30
2018-10-17T13:58:47.001Z,99.60
2018-10-17T14:01:16.600Z,99.00
2018-10-17T14:03:46.143Z,98.00
2018-10-17T14:06:15.720Z,96.30
2018-10-17T14:08:45.692Z,96.70
2018-10-17T14:11:15.322Z,97.50
2018-10-17T14:13:44.913Z,98.90
2018-10-17T14:16:14.548Z,97.70
2018-10-17T14:18:44.264Z,97.00
2018-10-17T14:21:13.834Z,96.20
2018-10-17T14:23:43.382Z,96.20
2018-10-17T14:26:13.065Z,96.80
2018-10-17T14:28:42.701Z,96.20
2018-10-17T14:31:12.338Z,96.30
2018-10-17T14:33:41.994Z,97.50
2018-10-17T14:36:12.143Z,98.40
2018-10-17T14:38:41.731Z,98.50
2018-10-17T14:41:11.374Z,99.90
2018-10-17T14:43:41.098Z,99.90
2018-10-17T14:46:10.638Z,99.90
2018-10-17T14:48:40.238Z,99.90
2018-10-17T14:51:10.097Z,99.90
2018-10-17T14:53:39.594Z,99.90
2018-10-17T14:56:09.232Z,99.90
2018-10-17T14:58:38.720Z,99.90
2018-10-17T15:01:08.290Z,99.90
2018-10-17T15:03:38.080Z,99.90
2018-10-17T15:06:07.600Z,99.90
2018-10-17T15:08:37.208Z,99.90
2018-10-17T15:11:06.861Z,99.90
2018-10-17T15:13:36.322Z,99.90
2018-10-17T15:16:05.973Z,99.90
2018-10-17T15:18:35.504Z,99.90
2018-10-17T15:21:05.297Z,99.90
2018-10-17T15:23:35.441Z,99.90
2018-10-17T15:26:05.297Z,99.90
2018-10-17T15:28:34.826Z,99.90
2018-10-17T15:31:04.436Z,99.90
2018-10-17T15:33:33.992Z,99.90
2018-10-17T15:36:03.564Z,99.90
2018-10-17T15:38:33.134Z,99.90
2018-10-17T15:41:02.710Z,99.90
2018-10-17T15:43:32.265Z,99.90
2018-10-17T15:46:01.789Z,99.90
2018-10-17T15:48:31.312Z,99.90
2018-10-17T15:51:00.859Z,99.90
2018-10-17T15:53:30.484Z,99.90
2018-10-17T15:56:00.075Z,99.90
2018-10-17T15:58:29.998Z,99.90
2018-10-17T16:00:59.577Z,99.90
2018-10-17T16:03:29.468Z,99.90
2018-10-17T16:05:59.137Z,99.90
2018-10-17T16:08:28.677Z,99.90
2018-10-17T16:10:58.614Z,99.90
2018-10-17T16:13:28.239Z,99.90
2018-10-17T16:15:57.782Z,99.90
2018-10-17T16:18:27.355Z,99.90
2018-10-17T16:20:57.377Z,99.90
2018-10-17T16:23:26.978Z,99.90
2018-10-17T16:25:56.561Z,99.90
2018-10-17T16:28:26.202Z,99.90
2018-10-17T16:30:55.772Z,99.90
2018-10-17T16:33:25.357Z,99.90
2018-10-17T16:35:54.922Z,99.90
2018-10-17T16:38:24.449Z,99.90
2018-10-17T16:40:53.967Z,99.90
2018-10-17T16:43:23.594Z,99.90
2018-10-17T16:45:53.361Z,99.90
2018-10-17T16:48:23.207Z,99.90
2018-10-17T16:50:52.930Z,99.90
2018-10-17T16:53:22.441Z,99.90
2018-10-17T16:55:52.030Z,99.90
2018-10-17T16:58:21.620Z,99.90
2018-10-17T17:00:51.194Z,99.90
2018-10-17T17:03:20.782Z,99.90
2018-10-17T17:05:50.354Z,99.90
2018-10-17T17:08:19.870Z,99.90
2018-10-17T17:10:49.504Z,99.90
2018-10-17T17:13:19.063Z,99.90
2018-10-17T17:15:48.610Z,99.90
2018-10-17T17:18:18.502Z,99.90
2018-10-17T17:20:47.999Z,99.90
2018-10-17T17:23:17.758Z,99.90
2018-10-17T17:25:47.322Z,99.90
2018-10-17T17:28:16.884Z,99.90
2018-10-17T17:30:46.427Z,99.90
2018-10-17T17:33:16.132Z,99.90
2018-10-17T17:35:45.605Z,99.90
2018-10-17T17:38:15.185Z,99.90
2018-10-17T17:40:44.744Z,99.90
2018-10-17T17:43:14.322Z,99.90
2018-10-17T17:45:43.866Z,99.90
2018-10-17T17:48:13.488Z,99.90
2018-10-17T17:50:43.091Z,99.90
2018-10-17T17:53:12.682Z,99.90
2018-10-17T17:55:42.258Z,99.90
2018-10-17T17:58:11.879Z,99.90
2018-10-17T18:00:41.464Z,99.90
2018-10-17T18:03:11.718Z,99.90
2018-10-17T18:05:41.290Z,99.90
2018-10-17T18:08:10.916Z,99.90
2018-10-17T18:10:40.407Z,99.90
2018-10-17T18:13:09.977Z,99.90
2018-10-17T18:15:39.755Z,99.90
2018-10-17T18:18:09.728Z,99.90
2018-10-17T18:20:40.167Z,99.90
2018-10-17T18:23:10.722Z,99.90
2018-10-17T18:25:41.412Z,99.90
2018-10-17T18:28:12.076Z,99.90
2018-10-17T18:30:42.563Z,99.90
2018-10-17T18:33:13.075Z,99.90
2018-10-17T18:35:43.563Z,99.90
2018-10-17T18:38:13.689Z,99.90
2018-10-17T18:40:44.756Z,99.90
2018-10-17T18:43:15.243Z,99.90
2018-10-17T18:45:44.912Z,99.90
2018-10-17T18:48:15.591Z,99.90
2018-10-17T18:50:45.174Z,99.90
2018-10-17T18:53:14.750Z,99.90
2018-10-17T18:55:44.381Z,99.90
2018-10-17T18:58:14.561Z,99.90
2018-10-17T19:00:44.260Z,99.90
2018-10-17T19:03:13.975Z,99.90
2018-10-17T19:05:43.531Z,99.90
2018-10-17T19:08:13.500Z,99.90
2018-10-17T19:10:43.046Z,99.90
2018-10-17T19:13:12.591Z,99.90
2018-10-17T19:15:42.419Z,99.90
2018-10-17T19:18:12.070Z,99.90
2018-10-17T19:20:41.645Z,99.90
2018-10-17T19:23:11.574Z,99.90
2018-10-17T19:25:41.173Z,99.90
2018-10-17T19:28:10.805Z,99.90
2018-10-17T19:30:40.379Z,99.90
2018-10-17T19:33:09.927Z,99.90
2018-10-17T19:35:40.060Z,99.90
2018-10-17T19:38:09.626Z,99.90
2018-10-17T19:40:39.218Z,99.90
2018-10-17T19:43:08.796Z,99.90
2018-10-17T19:45:38.971Z,99.90
2018-10-17T19:48:08.582Z,99.90
2018-10-17T19:50:38.155Z,99.90
2018-10-17T19:53:08.200Z,99.90
2018-10-17T19:55:37.750Z,99.90
2018-10-17T19:58:07.310Z,99.90
2018-10-17T20:00:36.845Z,99.90
2018-10-17T20:03:06.838Z,99.90
2018-10-17T20:05:36.322Z,99.90
2018-10-17T20:08:06.169Z,99.90
2018-10-17T20:10:35.716Z,99.90
2018-10-17T20:13:05.387Z,99.90
2018-10-17T20:15:34.889Z,99.90
2018-10-17T20:18:04.603Z,99.90
2018-10-17T20:20:34.143Z,99.90
2018-10-17T20:23:03.742Z,99.90
2018-10-17T20:25:33.270Z,99.90
2018-10-17T20:28:03.095Z,99.90
2018-10-17T20:30:32.614Z,99.90
2018-10-17T20:33:02.202Z,99.90
2018-10-17T20:35:31.753Z,99.90
2018-10-17T20:38:01.571Z,99.90
2018-10-17T20:40:31.133Z,99.90
2018-10-17T20:43:00.705Z,99.90
2018-10-17T20:45:30.360Z,99.90
2018-10-17T20:48:00.312Z,99.90
2018-10-17T20:50:29.825Z,99.90
2018-10-17T20:52:59.706Z,99.90
2018-10-17T20:55:29.632Z,99.90
2018-10-17T20:57:59.453Z,99.90
2018-10-17T21:00:29.645Z,99.90
2018-10-17T21:02:59.233Z,99.90
2018-10-17T21:05:28.781Z,99.90
2018-10-17T21:07:59.382Z,99.90
2018-10-17T21:10:28.991Z,99.90
2018-10-17T21:12:58.597Z,99.90
2018-10-17T21:15:28.436Z,99.90
2018-10-17T21:17:57.996Z,99.90
2018-10-17T21:20:27.585Z,99.90
2018-10-17T21:22:57.154Z,99.90
2018-10-17T21:25:26.802Z,99.90
2018-10-17T21:27:56.348Z,99.90
2018-10-17T21:30:25.893Z,99.90
2018-10-17T21:32:55.470Z,99.90
2018-10-17T21:35:25.147Z,99.90
2018-10-17T21:37:54.879Z,99.90
2018-10-17T21:40:24.299Z,99.90
2018-10-17T21:42:53.801Z,99.90
2018-10-17T21:45:23.386Z,99.90
2018-10-17T21:47:52.939Z,99.90
2018-10-17T21:50:22.722Z,99.90
2018-10-17T21:52:52.243Z,99.90
2018-10-17T21:55:21.796Z,99.90
2018-10-17T21:57:51.405Z,99.90
2018-10-17T22:00:21.259Z,99.90
2018-10-17T22:02:51.189Z,99.90
2018-10-17T22:05:20.709Z,99.90
2018-10-17T22:07:50.334Z,99.90
2018-10-17T22:10:20.297Z,99.90
2018-10-17T22:12:49.841Z,99.90
2018-10-17T22:15:19.384Z,99.90
2018-10-17T22:17:49.016Z,99.90
2018-10-17T22:20:18.655Z,99.90
2018-10-17T22:22:48.256Z,99.90
2018-10-17T22:25:17.865Z,99.90
2018-10-17T22:27:47.448Z,99.90
2018-10-17T22:30:16.970Z,99.90
2018-10-17T22:32:46.888Z,99.90
2018-10-17T22:35:17.103Z,99.90
2018-10-17T22:37:46.618Z,99.90
2018-10-17T22:40:16.168Z,99.90
2018-10-17T22:42:45.762Z,99.90
2018-10-17T22:45:15.533Z,99.90
2018-10-17T22:47:45.012Z,99.90
2018-10-17T22:50:14.662Z,99.90
2018-10-17T22:52:44.208Z,99.90
2018-10-17T22:55:13.854Z,99.90
2018-10-17T22:57:43.464Z,99.90
2018-10-17T23:00:13.079Z,99.90
2018-10-17T23:02:42.715Z,99.90
2018-10-17T23:05:12.305Z,99.90
2018-10-17T23:07:41.898Z,99.90
2018-10-17T23:10:11.400Z,99.90
2018-10-17T23:12:41.049Z,99.90
2018-10-17T23:15:13.932Z,99.90
2018-10-17T23:17:43.505Z,99.90
2018-10-17T23:20:13.167Z,99.90
2018-10-17T23:22:42.730Z,99.90
2018-10-17T23:25:12.648Z,99.90
2018-10-17T23:27:42.285Z,99.90
2018-10-17T23:30:11.884Z,99.90
2018-10-17T23:32:41.472Z,99.90
2018-10-17T23:35:11.050Z,99.90
2018-10-17T23:37:40.657Z,99.90
2018-10-17T23:40:10.224Z,99.90
2018-10-17T23:42:39.865Z,99.90
2018-10-17T23:45:09.446Z,99.90
2018-10-17T23:47:39.065Z,99.90
2018-10-17T23:50:08.641Z,99.90
2018-10-17T23:52:38.202Z,99.90
2018-10-17T23:55:08.368Z,99.90
2018-10-17T23:57:38.064Z,99.90
